Time;durP1;ratioP1;P1;durP2;ratioP2;P2;SDS_P1;SDS_P2;PMS_P1;PMS_P2;Temp;Humidity;BMP_temperature;BMP_pressure;BME280_temperature;BME280_humidity;BME280_pressure;Samples;Min_cycle;Max_cycle;Signal;HPM_P1;HPM_P2
2022/02/05 00:01:38;;;;;;;24.98;18.00;;;;;;;;;;10529226;28;20024;-78
2022/02/05 00:06:36;;;;;;;30.65;16.92;;;;;;;;;;10529935;28;20023;-76
2022/02/05 00:38:26;;;;;;;27.65;16.70;;;;;;;;;;10501487;28;20063;-73
2022/02/05 00:43:30;;;;;;;33.70;21.20;;;;;;;;;;10488413;28;20582;-79
2022/02/05 00:48:31;;;;;;;38.53;22.92;;;;;;;;;;10529633;28;20060;-81
2022/02/05 00:53:35;;;;;;;43.55;22.58;;;;;;;;;;10529505;28;20028;-80
2022/02/05 00:58:37;;;;;;;46.13;24.25;;;;;;;;;;10527393;28;20034;-80
2022/02/05 01:03:38;;;;;;;55.20;30.35;;;;;;;;;;10526256;28;20024;-73
2022/02/05 01:08:38;;;;;;;42.83;28.42;;;;;;;;;;10509153;28;20036;-74
2022/02/05 01:13:39;;;;;;;64.53;34.08;;;;;;;;;;10529303;28;20055;-72
2022/02/05 01:18:42;;;;;;;50.60;37.37;;;;;;;;;;10528753;28;20032;-73
2022/02/05 01:23:48;;;;;;;49.97;32.60;;;;;;;;;;10511768;28;20020;-74
2022/02/05 01:28:55;;;;;;;43.30;25.10;;;;;;;;;;10529924;28;20028;-74
2022/02/05 02:05:12;;;;;;;52.08;31.02;;;;;;;;;;10494887;28;20514;-73
2022/02/05 02:10:25;;;;;;;53.60;28.73;;;;;;;;;;10476959;28;20416;-79
2022/02/05 02:15:32;;;;;;;48.00;26.95;;;;;;;;;;10507865;28;20033;-73
2022/02/05 02:21:01;;;;;;;49.40;35.07;;;;;;;;;;10492477;28;20032;-72
2022/02/05 02:26:15;;;;;;;47.20;31.33;;;;;;;;;;10493510;28;20032;-74
2022/02/05 02:31:21;;;;;;;72.47;24.92;;;;;;;;;;10492530;28;20156;-74
2022/02/05 02:36:43;;;;;;;56.22;30.65;;;;;;;;;;10493289;28;20029;-75
2022/02/05 02:42:04;;;;;;;50.90;27.88;;;;;;;;;;10492212;28;20123;-73
2022/02/05 02:47:05;;;;;;;50.05;30.00;;;;;;;;;;10492563;28;20031;-73
2022/02/05 02:57:31;;;;;;;62.80;30.35;;;;;;;;;;10493016;28;20262;-74
2022/02/05 03:02:31;;;;;;;76.60;31.75;;;;;;;;;;10490697;28;20514;-73
2022/02/05 03:07:31;;;;;;;55.15;29.17;;;;;;;;;;10490682;28;20017;-73
2022/02/05 03:12:34;;;;;;;63.08;29.10;;;;;;;;;;10490565;28;20031;-73
2022/02/05 03:17:42;;;;;;;55.13;28.52;;;;;;;;;;10490320;28;20016;-74
2022/02/05 03:22:42;;;;;;;53.67;31.50;;;;;;;;;;10490137;28;20605;-73
2022/02/05 03:27:42;;;;;;;54.75;34.35;;;;;;;;;;10491029;28;20031;-75
2022/02/05 03:32:43;;;;;;;56.72;29.55;;;;;;;;;;10490215;28;20031;-80
2022/02/05 03:37:43;;;;;;;72.13;33.83;;;;;;;;;;10491164;28;20029;-82
2022/02/05 03:42:44;;;;;;;59.67;31.25;;;;;;;;;;10489248;28;20677;-74
2022/02/05 03:47:44;;;;;;;64.37;32.87;;;;;;;;;;10577246;23;20151;-75
2022/02/05 03:52:45;;;;;;;58.75;30.88;;;;;;;;;;10573274;28;20124;-74
2022/02/05 03:57:46;;;;;;;61.65;29.65;;;;;;;;;;10571768;28;20016;-73
2022/02/05 04:02:46;;;;;;;64.05;32.28;;;;;;;;;;10573785;28;20474;-72
2022/02/05 04:07:50;;;;;;;62.47;34.13;;;;;;;;;;10573074;28;20023;-74
2022/02/05 04:18:10;;;;;;;53.17;30.05;;;;;;;;;;10561496;28;20398;-74
2022/02/05 04:23:10;;;;;;;77.75;37.90;;;;;;;;;;10529914;28;20032;-73
2022/02/05 04:28:10;;;;;;;71.45;41.95;;;;;;;;;;10529519;28;20020;-75
2022/02/05 04:33:10;;;;;;;79.35;42.40;;;;;;;;;;10529107;28;20560;-71
2022/02/05 04:38:11;;;;;;;36.00;20.33;;;;;;;;;;10530145;28;20024;-73
2022/02/05 04:43:38;;;;;;;32.05;20.05;;;;;;;;;;10529719;28;20062;-75
2022/02/05 05:09:50;;;;;;;16.13;11.40;;;;;;;;;;10535351;28;20534;-74
2022/02/05 05:19:59;;;;;;;33.47;17.65;;;;;;;;;;10537962;28;20032;-75
2022/02/05 05:25:00;;;;;;;29.17;20.33;;;;;;;;;;10537054;28;20028;-76
2022/02/05 05:30:00;;;;;;;27.77;21.15;;;;;;;;;;10513630;28;20035;-76
2022/02/05 05:35:01;;;;;;;39.67;20.75;;;;;;;;;;10536560;28;20562;-82
2022/02/05 05:40:02;;;;;;;35.00;27.33;;;;;;;;;;10553125;28;20491;-75
2022/02/05 05:50:34;;;;;;;46.17;30.77;;;;;;;;;;10536846;28;20085;-76
2022/02/05 05:55:31;;;;;;;46.28;32.28;;;;;;;;;;10494536;28;20024;-77
2022/02/05 06:00:32;;;;;;;40.45;31.08;;;;;;;;;;10478124;28;20078;-76
2022/02/05 06:05:32;;;;;;;43.20;26.40;;;;;;;;;;10534847;28;20479;-77
2022/02/05 06:10:33;;;;;;;44.83;26.17;;;;;;;;;;10536180;28;20501;-74
2022/02/05 06:15:34;;;;;;;34.95;25.27;;;;;;;;;;10535644;28;20035;-74
2022/02/05 06:20:36;;;;;;;25.25;17.27;;;;;;;;;;10533826;28;20501;-75
2022/02/05 06:25:39;;;;;;;26.35;17.98;;;;;;;;;;10552392;22;20027;-74
2022/02/05 06:30:39;;;;;;;26.48;19.25;;;;;;;;;;10534528;28;20068;-74
2022/02/05 06:35:39;;;;;;;29.70;21.27;;;;;;;;;;10493641;28;20111;-72
2022/02/05 06:40:40;;;;;;;24.70;20.10;;;;;;;;;;10491861;28;20127;-74
2022/02/05 06:45:40;;;;;;;38.13;26.52;;;;;;;;;;10490781;28;20078;-73
2022/02/05 06:50:40;;;;;;;29.67;19.13;;;;;;;;;;10494902;28;20031;-74
2022/02/05 06:55:41;;;;;;;29.65;20.70;;;;;;;;;;10497979;28;20267;-76
2022/02/05 07:00:41;;;;;;;45.83;27.52;;;;;;;;;;10498821;28;20024;-76
2022/02/05 07:05:42;;;;;;;45.53;29.88;;;;;;;;;;10493494;28;20085;-76
2022/02/05 07:10:42;;;;;;;48.78;33.25;;;;;;;;;;10490179;28;20036;-76
2022/02/05 07:15:52;;;;;;;63.47;32.87;;;;;;;;;;10489877;28;20476;-78
2022/02/05 07:21:16;;;;;;;54.67;30.42;;;;;;;;;;10488510;28;20306;-76
2022/02/05 07:31:31;;;;;;;49.50;26.92;;;;;;;;;;10509313;28;20473;-78
2022/02/05 07:36:32;;;;;;;60.33;25.75;;;;;;;;;;10525771;28;20028;-81
2022/02/05 07:41:34;;;;;;;44.17;24.70;;;;;;;;;;10525751;28;20097;-79
2022/02/05 07:46:36;;;;;;;53.33;25.30;;;;;;;;;;10528528;28;20020;-76
2022/02/05 07:51:36;;;;;;;51.03;24.27;;;;;;;;;;10530680;28;20119;-73
2022/02/05 07:56:47;;;;;;;55.03;23.83;;;;;;;;;;10528641;28;20027;-74
2022/02/05 08:01:47;;;;;;;52.90;22.25;;;;;;;;;;10527811;28;20115;-75
2022/02/05 08:06:49;;;;;;;43.70;22.97;;;;;;;;;;10528119;28;20020;-76
2022/02/05 08:11:55;;;;;;;59.28;24.42;;;;;;;;;;10528042;28;20040;-75
2022/02/05 08:17:03;;;;;;;45.50;21.83;;;;;;;;;;10532857;28;20035;-75
2022/02/05 08:22:03;;;;;;;42.90;22.90;;;;;;;;;;10527200;28;20024;-79
2022/02/05 08:27:04;;;;;;;64.00;22.38;;;;;;;;;;10527929;28;20046;-75
2022/02/05 08:32:04;;;;;;;48.55;23.23;;;;;;;;;;10527700;28;20127;-74
2022/02/05 08:37:05;;;;;;;44.72;20.65;;;;;;;;;;10528244;28;20020;-78
2022/02/05 08:42:05;;;;;;;47.28;21.23;;;;;;;;;;10529224;28;20032;-75
2022/02/05 08:47:05;;;;;;;46.00;20.55;;;;;;;;;;10527322;28;20093;-75
2022/02/05 08:52:09;;;;;;;53.20;20.60;;;;;;;;;;10527913;28;20480;-75
2022/02/05 08:57:10;;;;;;;40.60;20.48;;;;;;;;;;10524153;28;20028;-75
2022/02/05 09:07:36;;;;;;;41.60;20.20;;;;;;;;;;10520424;28;20032;-78
2022/02/05 09:17:37;;;;;;;62.80;22.80;;;;;;;;;;10528718;28;20258;-74
2022/02/05 09:22:38;;;;;;;43.95;23.02;;;;;;;;;;10501375;28;20029;-75
2022/02/05 09:27:44;;;;;;;49.70;20.70;;;;;;;;;;10502389;28;20507;-74
2022/02/05 09:32:45;;;;;;;39.55;21.23;;;;;;;;;;10485200;28;20291;-72
2022/02/05 09:37:45;;;;;;;52.95;21.40;;;;;;;;;;10468674;28;20028;-77
2022/02/05 09:42:46;;;;;;;33.90;17.60;;;;;;;;;;10502631;28;20470;-74
2022/02/05 09:47:46;;;;;;;38.13;18.35;;;;;;;;;;10526950;28;20335;-76
2022/02/05 09:52:51;;;;;;;31.23;16.65;;;;;;;;;;10526396;28;20028;-74
2022/02/05 09:57:52;;;;;;;34.63;18.27;;;;;;;;;;10533671;28;20385;-75
2022/02/05 10:02:56;;;;;;;29.63;15.00;;;;;;;;;;10534176;28;20506;-74
2022/02/05 10:08:00;;;;;;;29.52;15.57;;;;;;;;;;10533915;28;20024;-76
2022/02/05 10:13:10;;;;;;;26.08;13.70;;;;;;;;;;10532207;28;20028;-77
2022/02/05 10:18:30;;;;;;;29.67;13.95;;;;;;;;;;10491438;28;20040;-74
2022/02/05 10:23:31;;;;;;;24.80;13.82;;;;;;;;;;10490778;28;20044;-76
2022/02/05 10:28:31;;;;;;;34.63;15.32;;;;;;;;;;10531443;28;20522;-74
2022/02/05 10:33:34;;;;;;;35.13;13.73;;;;;;;;;;10532835;28;20028;-76
2022/02/05 10:43:45;;;;;;;44.88;22.63;;;;;;;;;;10533943;28;20032;-75
2022/02/05 10:48:45;;;;;;;56.30;24.13;;;;;;;;;;10531928;28;20024;-76
2022/02/05 10:53:51;;;;;;;46.43;23.50;;;;;;;;;;10506521;28;20020;-75
2022/02/05 10:59:16;;;;;;;54.03;24.73;;;;;;;;;;10505496;28;20025;-74
2022/02/05 11:09:46;;;;;;;43.10;22.40;;;;;;;;;;10533861;28;20089;-76
2022/02/05 11:20:16;;;;;;;43.95;22.75;;;;;;;;;;10532264;28;20113;-74
2022/02/05 11:25:17;;;;;;;47.10;20.60;;;;;;;;;;10530302;28;20063;-74
2022/02/05 11:30:39;;;;;;;53.90;20.50;;;;;;;;;;10526774;28;20606;-74
2022/02/05 11:40:59;;;;;;;41.63;21.55;;;;;;;;;;10490319;28;20480;-80
2022/02/05 11:46:12;;;;;;;68.55;25.88;;;;;;;;;;10487509;28;20054;-73
2022/02/05 11:51:12;;;;;;;49.45;24.00;;;;;;;;;;10493778;28;20048;-74
2022/02/05 11:56:13;;;;;;;48.58;25.92;;;;;;;;;;10487345;28;20131;-80
2022/02/05 12:01:31;;;;;;;47.28;21.73;;;;;;;;;;10496817;28;20024;-77
2022/02/05 12:07:05;;;;;;;49.22;22.80;;;;;;;;;;10488345;28;20027;-81
2022/02/05 12:12:34;;;;;;;45.80;23.08;;;;;;;;;;10476908;28;20047;-78
2022/02/05 12:17:39;;;;;;;;;;;;;;;;;;10489237;28;20021;-78
2022/02/05 12:24:13;;;;;;;59.05;26.15;;;;;;;;;;10489512;28;19919;-80
2022/02/05 12:28:30;;;;;;;65.15;28.05;;;;;;;;;;10518767;28;20353;-82
2022/02/05 12:33:44;;;;;;;51.33;25.80;;;;;;;;;;10528282;28;20028;-75
2022/02/05 12:38:44;;;;;;;66.03;26.77;;;;;;;;;;10530105;28;20517;-80
2022/02/05 12:44:04;;;;;;;57.77;26.27;;;;;;;;;;10530340;28;20046;-80
2022/02/05 12:49:13;;;;;;;44.25;22.77;;;;;;;;;;10528365;28;20377;-74
2022/02/05 12:54:16;;;;;;;50.70;24.45;;;;;;;;;;10528477;28;20024;-80
2022/02/05 12:59:24;;;;;;;49.78;22.77;;;;;;;;;;10527748;28;20031;-77
2022/02/05 13:04:25;;;;;;;32.30;13.73;;;;;;;;;;10527495;28;20123;-75
2022/02/05 13:09:27;;;;;;;15.52;6.70;;;;;;;;;;10527304;28;20028;-75
2022/02/05 13:14:38;;;;;;;41.40;18.23;;;;;;;;;;10500502;28;20059;-75
2022/02/05 13:19:57;;;;;;;16.50;5.78;;;;;;;;;;10527731;28;20055;-76
2022/02/05 13:25:34;;;;;;;14.52;4.85;;;;;;;;;;10531510;28;20016;-75
2022/02/05 13:35:55;;;;;;;8.13;3.35;;;;;;;;;;10534891;28;20186;-76
2022/02/05 13:41:03;;;;;;;9.45;3.50;;;;;;;;;;10508236;28;20028;-80
2022/02/05 13:46:10;;;;;;;9.73;4.43;;;;;;;;;;10495268;28;20170;-78
2022/02/05 13:51:10;;;;;;;8.75;3.60;;;;;;;;;;10494239;28;20514;-75
2022/02/05 13:56:11;;;;;;;12.57;3.88;;;;;;;;;;10491718;28;20035;-75
2022/02/05 14:01:25;;;;;;;7.28;2.85;;;;;;;;;;10530612;28;20463;-75
2022/02/05 14:06:26;;;;;;;7.53;3.42;;;;;;;;;;10522194;28;20120;-76
2022/02/05 14:11:31;;;;;;;11.47;3.77;;;;;;;;;;10491464;28;20556;-81
2022/02/05 14:16:37;;;;;;;13.98;4.22;;;;;;;;;;10492332;28;20302;-75
2022/02/05 14:21:49;;;;;;;8.02;3.72;;;;;;;;;;10491938;28;20031;-75
2022/02/05 14:26:56;;;;;;;10.85;4.10;;;;;;;;;;10496270;28;20066;-79
2022/02/05 14:32:23;;;;;;;9.90;3.78;;;;;;;;;;10533099;28;20063;-75
2022/02/05 14:42:42;;;;;;;7.47;4.28;;;;;;;;;;10530731;28;20024;-78
2022/02/05 14:47:42;;;;;;;10.25;4.80;;;;;;;;;;10524269;28;20491;-75
2022/02/05 14:52:43;;;;;;;14.05;3.95;;;;;;;;;;10473151;28;20028;-75
2022/02/05 14:57:43;;;;;;;9.30;4.28;;;;;;;;;;10489403;28;20024;-75
2022/02/05 15:02:44;;;;;;;7.57;5.28;;;;;;;;;;10488217;28;20115;-74
2022/02/05 15:07:44;;;;;;;17.20;5.50;;;;;;;;;;10489999;28;20016;-75
2022/02/05 15:12:45;;;;;;;10.25;5.50;;;;;;;;;;10488457;28;20502;-75
2022/02/05 15:17:45;;;;;;;15.63;5.68;;;;;;;;;;10488271;28;20503;-80
2022/02/05 15:22:49;;;;;;;9.90;6.32;;;;;;;;;;10491529;28;20030;-73
2022/02/05 15:27:50;;;;;;;10.30;5.75;;;;;;;;;;10529286;28;20039;-75
2022/02/05 15:32:50;;;;;;;13.07;6.20;;;;;;;;;;10529645;28;20483;-77
2022/02/05 15:37:50;;;;;;;14.93;6.30;;;;;;;;;;10530795;28;20468;-80
2022/02/05 15:48:10;;;;;;;10.25;6.22;;;;;;;;;;10489030;28;20024;-76
2022/02/05 15:53:11;;;;;;;20.58;6.68;;;;;;;;;;10485579;28;20373;-74
2022/02/05 15:58:18;;;;;;;16.73;5.65;;;;;;;;;;10500989;28;20496;-76
2022/02/05 16:03:19;;;;;;;13.90;6.30;;;;;;;;;;10486501;28;20028;-78
2022/02/05 16:08:19;;;;;;;16.08;7.10;;;;;;;;;;10513060;28;20027;-74
2022/02/05 16:13:19;;;;;;;14.37;7.50;;;;;;;;;;10527942;28;20439;-75
2022/02/05 16:18:20;;;;;;;19.58;8.35;;;;;;;;;;10527346;28;20266;-76
2022/02/05 16:23:21;;;;;;;15.88;6.90;;;;;;;;;;10528528;28;20031;-79
2022/02/05 16:28:21;;;;;;;15.35;7.35;;;;;;;;;;10527291;28;20611;-75
2022/02/05 16:33:22;;;;;;;17.40;7.07;;;;;;;;;;10527810;28;20117;-78
2022/02/05 16:38:30;;;;;;;13.95;6.68;;;;;;;;;;10527959;28;20024;-75
2022/02/05 16:43:31;;;;;;;15.07;7.83;;;;;;;;;;10485951;28;20064;-77
2022/02/05 16:48:33;;;;;;;17.70;8.38;;;;;;;;;;10490854;28;20147;-79
2022/02/05 16:53:34;;;;;;;16.38;8.82;;;;;;;;;;10536303;28;20016;-80
2022/02/05 16:58:36;;;;;;;16.83;7.53;;;;;;;;;;10527268;28;20024;-81
2022/02/05 17:03:36;;;;;;;16.90;8.68;;;;;;;;;;10530373;28;20032;-78
2022/02/05 17:08:39;;;;;;;14.65;6.82;;;;;;;;;;10534874;28;20024;-81
2022/02/05 17:13:41;;;;;;;14.93;7.97;;;;;;;;;;10508859;28;20488;-80
2022/02/05 17:18:41;;;;;;;22.15;8.55;;;;;;;;;;10493813;28;20036;-81
2022/02/05 17:23:43;;;;;;;20.57;8.53;;;;;;;;;;10504577;28;20016;-75
2022/02/05 17:28:47;;;;;;;17.20;9.23;;;;;;;;;;10534994;28;20124;-76
2022/02/05 17:33:49;;;;;;;19.08;9.00;;;;;;;;;;10534207;28;20536;-75
2022/02/05 17:38:53;;;;;;;20.55;8.48;;;;;;;;;;10492205;28;20036;-75
2022/02/05 17:43:53;;;;;;;27.17;10.02;;;;;;;;;;10493628;28;20480;-80
2022/02/05 17:48:54;;;;;;;18.95;9.05;;;;;;;;;;10493143;28;20025;-75
2022/02/05 17:53:57;;;;;;;18.30;8.20;;;;;;;;;;10491873;28;20487;-75
2022/02/05 17:58:57;;;;;;;21.80;8.23;;;;;;;;;;10492787;28;20035;-76
2022/02/05 18:03:58;;;;;;;16.60;8.70;;;;;;;;;;10491610;28;20024;-80
2022/02/05 18:09:10;;;;;;;16.98;8.55;;;;;;;;;;10490977;28;20089;-77
2022/02/05 18:19:10;;;;;;;22.23;9.07;;;;;;;;;;10523549;28;20024;-75
2022/02/05 18:24:12;;;;;;;13.95;8.02;;;;;;;;;;10489483;28;20043;-75
2022/02/05 18:29:13;;;;;;;15.10;7.88;;;;;;;;;;10531125;28;20104;-74
2022/02/05 18:34:14;;;;;;;21.20;8.37;;;;;;;;;;10531794;28;20479;-79
2022/02/05 18:39:22;;;;;;;21.20;7.82;;;;;;;;;;10534114;28;20024;-75
2022/02/05 18:44:22;;;;;;;17.05;7.93;;;;;;;;;;10531320;28;20089;-76
2022/02/05 18:49:22;;;;;;;10.38;7.20;;;;;;;;;;10532133;28;20099;-75
2022/02/05 18:54:23;;;;;;;11.00;6.82;;;;;;;;;;10516924;28;20028;-77
2022/02/05 18:59:25;;;;;;;16.35;6.57;;;;;;;;;;10500071;28;20020;-76
2022/02/05 19:10:06;;;;;;;10.40;5.35;;;;;;;;;;10488652;28;20020;-77
2022/02/05 19:20:20;;;;;;;12.77;6.18;;;;;;;;;;10490027;28;20393;-74
2022/02/05 19:25:21;;;;;;;7.68;5.35;;;;;;;;;;10498327;28;20012;-75
2022/02/05 19:30:21;;;;;;;12.02;7.03;;;;;;;;;;10530313;28;20498;-77
2022/02/05 19:35:22;;;;;;;9.37;5.60;;;;;;;;;;10529898;28;20056;-74
2022/02/05 19:40:22;;;;;;;17.30;6.70;;;;;;;;;;10529611;28;20285;-75
2022/02/05 19:45:26;;;;;;;11.57;5.20;;;;;;;;;;10529576;28;20288;-75
2022/02/05 19:50:27;;;;;;;16.33;7.57;;;;;;;;;;10528938;28;20703;-76
2022/02/05 19:55:28;;;;;;;11.70;6.20;;;;;;;;;;10488389;28;20031;-75
2022/02/05 20:00:29;;;;;;;10.80;6.43;;;;;;;;;;10487152;28;20495;-75
2022/02/05 20:05:54;;;;;;;10.68;6.22;;;;;;;;;;10483541;28;20031;-78
2022/02/05 20:10:51;;;;;;;10.55;5.95;;;;;;;;;;10488415;28;20381;-77
2022/02/05 20:15:52;;;;;;;10.57;5.93;;;;;;;;;;10491066;28;20085;-75
2022/02/05 20:20:53;;;;;;;16.83;7.60;;;;;;;;;;10484758;28;20017;-76
2022/02/05 20:25:54;;;;;;;11.30;7.53;;;;;;;;;;10524244;28;20035;-74
2022/02/05 20:30:55;;;;;;;18.10;14.65;;;;;;;;;;10485884;28;20471;-76
2022/02/05 20:35:56;;;;;;;10.95;7.20;;;;;;;;;;10485700;28;20112;-75
2022/02/05 20:40:57;;;;;;;15.07;6.50;;;;;;;;;;10485588;28;20028;-75
2022/02/05 20:46:00;;;;;;;14.68;7.10;;;;;;;;;;10486767;28;20019;-77
2022/02/05 20:51:11;;;;;;;13.95;7.00;;;;;;;;;;10486028;28;20430;-80
2022/02/05 20:56:12;;;;;;;13.75;7.18;;;;;;;;;;10485220;28;20063;-75
2022/02/05 21:01:13;;;;;;;12.85;7.47;;;;;;;;;;10486435;28;20427;-75
2022/02/05 21:06:16;;;;;;;16.02;6.80;;;;;;;;;;10522216;28;20471;-76
2022/02/05 21:11:16;;;;;;;12.15;6.75;;;;;;;;;;10510513;28;20020;-73
2022/02/05 21:16:17;;;;;;;12.90;6.70;;;;;;;;;;10522371;28;20024;-73
2022/02/05 21:21:17;;;;;;;12.82;6.68;;;;;;;;;;10524469;28;20437;-80
2022/02/05 21:26:19;;;;;;;14.88;7.50;;;;;;;;;;10524385;28;20926;-75
2022/02/05 21:31:47;;;;;;;11.85;7.13;;;;;;;;;;10528034;28;20074;-75
2022/02/05 21:36:48;;;;;;;14.00;7.05;;;;;;;;;;10545928;22;20145;-75
2022/02/05 21:41:48;;;;;;;10.73;6.70;;;;;;;;;;10555379;22;20106;-77
2022/02/05 21:46:48;;;;;;;12.88;6.60;;;;;;;;;;10484522;28;20021;-75
2022/02/05 21:51:56;;;;;;;13.97;6.67;;;;;;;;;;10489723;28;20103;-75
2022/02/05 21:57:05;;;;;;;11.93;6.63;;;;;;;;;;10507362;28;20266;-75
2022/02/05 22:02:13;;;;;;;12.60;6.90;;;;;;;;;;10533186;28;20035;-75
2022/02/05 22:07:13;;;;;;;10.10;6.45;;;;;;;;;;10534010;28;20024;-75
2022/02/05 22:12:13;;;;;;;18.92;8.15;;;;;;;;;;10533009;28;20024;-75
2022/02/05 22:17:18;;;;;;;14.15;7.28;;;;;;;;;;10533577;28;20031;-81
2022/02/05 22:22:18;;;;;;;10.15;6.95;;;;;;;;;;10533239;28;20031;-74
2022/02/05 22:27:19;;;;;;;11.60;6.72;;;;;;;;;;10532542;28;20072;-75
2022/02/05 22:32:19;;;;;;;12.52;6.57;;;;;;;;;;10531547;28;20024;-77
2022/02/05 22:37:22;;;;;;;10.27;6.97;;;;;;;;;;10534321;28;20038;-77
2022/02/05 22:42:22;;;;;;;14.80;7.35;;;;;;;;;;10535248;28;20047;-77
2022/02/05 22:47:23;;;;;;;11.98;7.13;;;;;;;;;;10534937;28;20487;-75
2022/02/05 22:52:24;;;;;;;16.58;7.15;;;;;;;;;;10517162;28;20527;-78
2022/02/05 22:57:24;;;;;;;14.38;7.60;;;;;;;;;;10533493;28;20027;-78
2022/02/05 23:02:24;;;;;;;14.27;6.97;;;;;;;;;;10533873;28;20035;-77
2022/02/05 23:07:24;;;;;;;12.95;7.05;;;;;;;;;;10532530;28;20293;-77
2022/02/05 23:44:38;;;;;;;12.00;7.88;;;;;;;;;;10488889;28;20476;-76
2022/02/05 23:49:42;;;;;;;14.00;7.37;;;;;;;;;;10490940;28;20021;-75
2022/02/05 23:54:42;;;;;;;14.65;7.68;;;;;;;;;;10488926;28;20067;-75
2022/02/05 23:59:48;;;;;;;15.75;9.40;;;;;;;;;;10488867;28;20103;-77
